createdAt,value
2022-12-15T00:00:36.902Z,94.66
2022-12-15T00:05:58.154Z,94.73
2022-12-15T00:11:21.304Z,94.92
2022-12-15T00:16:42.722Z,94.95
2022-12-15T00:22:04.855Z,94.87
2022-12-15T00:27:26.076Z,95.01
2022-12-15T00:32:47.337Z,95.28
2022-12-15T00:38:08.480Z,95.35
2022-12-15T00:43:12.220Z,95.41
2022-12-15T00:48:15.328Z,95.45
2022-12-15T00:53:41.015Z,95.69
2022-12-15T00:59:02.342Z,96.01
2022-12-15T01:04:23.714Z,96.15
2022-12-15T01:09:45.536Z,96.38
2022-12-15T01:15:06.607Z,96.68
2022-12-15T01:20:20.236Z,96.66
2022-12-15T01:25:26.252Z,96.87
2022-12-15T01:30:29.179Z,97.02
2022-12-15T01:35:32.692Z,97.35
2022-12-15T01:40:45.396Z,97.75
2022-12-15T01:46:12.706Z,97.79
2022-12-15T01:51:34.020Z,98.05
2022-12-15T01:56:46.432Z,97.98
2022-12-15T02:01:49.524Z,98.23
2022-12-15T02:06:53.747Z,98.10
2022-12-15T02:12:07.077Z,98.23
2022-12-15T02:17:19.994Z,97.94
2022-12-15T02:23:03.846Z,98.46
2022-12-15T02:28:21.405Z,98.49
2022-12-15T02:33:30.011Z,98.53
2022-12-15T02:38:38.323Z,98.54
2022-12-15T02:43:41.075Z,98.65
2022-12-15T02:49:21.932Z,99.11
2022-12-15T02:55:11.398Z,99.18
2022-12-15T03:00:17.224Z,99.43
2022-12-15T03:05:22.537Z,99.66
2022-12-15T03:10:26.518Z,100.00
2022-12-15T03:15:35.056Z,100.00
2022-12-15T03:20:38.727Z,100.00
2022-12-15T03:25:41.781Z,100.00
2022-12-15T03:30:45.103Z,100.00
2022-12-15T03:35:48.734Z,100.00
2022-12-15T03:40:51.520Z,100.00
2022-12-15T03:45:54.504Z,100.00
2022-12-15T03:50:57.512Z,100.00
2022-12-15T03:56:00.373Z,100.00
2022-12-15T04:01:21.897Z,100.00
2022-12-15T04:06:24.941Z,100.00
2022-12-15T04:11:27.919Z,100.00
2022-12-15T04:16:30.943Z,100.00
2022-12-15T04:21:33.978Z,100.00
2022-12-15T04:26:55.244Z,100.00
2022-12-15T04:32:17.246Z,100.00
2022-12-15T04:37:38.406Z,100.00
2022-12-15T04:43:04.190Z,100.00
2022-12-15T04:48:26.200Z,100.00
2022-12-15T04:53:47.507Z,100.00
2022-12-15T04:59:08.820Z,100.00
2022-12-15T05:04:30.407Z,100.00
2022-12-15T05:09:51.816Z,100.00
2022-12-15T05:15:12.693Z,100.00
2022-12-15T05:20:34.052Z,100.00
2022-12-15T05:25:55.474Z,100.00
2022-12-15T05:31:16.905Z,100.00
2022-12-15T05:36:20.990Z,100.00
2022-12-15T05:41:24.531Z,100.00
2022-12-15T05:46:27.611Z,100.00
2022-12-15T05:51:30.615Z,100.00
2022-12-15T05:56:33.519Z,100.00
2022-12-15T06:01:37.537Z,100.00
2022-12-15T06:06:41.625Z,100.00
2022-12-15T06:11:44.817Z,100.00
2022-12-15T06:16:51.203Z,100.00
2022-12-15T06:21:54.393Z,100.00
2022-12-15T06:26:57.394Z,100.00
2022-12-15T06:32:00.413Z,100.00
2022-12-15T06:37:03.889Z,100.00
2022-12-15T06:42:06.866Z,100.00
2022-12-15T06:47:09.907Z,100.00
2022-12-15T06:52:12.878Z,100.00
2022-12-15T06:57:15.982Z,100.00
2022-12-15T07:02:22.443Z,100.00
2022-12-15T07:07:29.878Z,100.00
2022-12-15T07:12:32.661Z,100.00
2022-12-15T07:17:37.082Z,100.00
2022-12-15T07:22:40.266Z,100.00
2022-12-15T07:27:43.296Z,100.00
2022-12-15T07:32:50.196Z,100.00
2022-12-15T07:37:54.075Z,100.00
2022-12-15T07:42:57.444Z,100.00
2022-12-15T07:48:00.341Z,100.00
2022-12-15T07:53:03.453Z,100.00
2022-12-15T07:58:09.261Z,100.00
2022-12-15T08:03:12.236Z,100.00
2022-12-15T08:08:15.804Z,100.00
2022-12-15T08:13:52.504Z,100.00
2022-12-15T08:18:41.782Z,100.00
2022-12-15T08:23:45.174Z,100.00
2022-12-15T08:28:48.284Z,100.00
2022-12-15T08:33:51.653Z,100.00
2022-12-15T08:38:58.352Z,100.00
2022-12-15T08:44:02.442Z,100.00
2022-12-15T08:49:05.450Z,100.00
2022-12-15T08:54:09.384Z,100.00
2022-12-15T08:59:12.396Z,100.00
2022-12-15T09:04:15.682Z,100.00
2022-12-15T09:09:19.953Z,100.00
2022-12-15T09:14:28.863Z,100.00
2022-12-15T09:19:32.398Z,100.00
2022-12-15T09:24:35.725Z,100.00
2022-12-15T09:29:38.758Z,100.00
2022-12-15T09:34:42.095Z,100.00
2022-12-15T09:39:45.544Z,100.00
2022-12-15T09:44:50.560Z,100.00
2022-12-15T09:50:09.653Z,100.00
2022-12-15T09:55:26.147Z,100.00
2022-12-15T10:00:52.579Z,100.00
2022-12-15T10:06:21.414Z,100.00
2022-12-15T10:11:43.653Z,99.73
2022-12-15T10:17:11.122Z,98.59
2022-12-15T10:22:23.759Z,97.96
2022-12-15T10:28:06.242Z,97.54
2022-12-15T10:33:24.299Z,97.54
2022-12-15T10:38:42.578Z,97.18
2022-12-15T10:43:50.344Z,96.20
2022-12-15T10:49:08.778Z,96.59
2022-12-15T10:54:13.897Z,95.96
2022-12-15T10:59:34.064Z,96.04
2022-12-15T11:04:37.010Z,96.18
2022-12-15T11:09:40.497Z,95.66
2022-12-15T11:14:48.098Z,95.75
2022-12-15T11:20:04.383Z,95.71
2022-12-15T11:25:44.353Z,95.69
2022-12-15T11:31:00.411Z,95.62
2022-12-15T11:36:32.628Z,95.58
2022-12-15T11:42:11.843Z,95.69
2022-12-15T11:47:29.657Z,95.30
2022-12-15T11:52:57.048Z,95.50
2022-12-15T11:59:09.844Z,95.13
2022-12-15T12:04:21.803Z,95.22
2022-12-15T12:09:36.772Z,95.38
2022-12-15T12:15:08.286Z,95.19
2022-12-15T12:20:39.821Z,95.13
2022-12-15T12:26:02.914Z,94.97
2022-12-15T12:31:36.801Z,94.92
2022-12-15T12:36:43.956Z,95.00
2022-12-15T12:42:09.609Z,95.16
2022-12-15T12:47:20.385Z,95.00
2022-12-15T12:52:37.326Z,94.98
2022-12-15T12:57:42.841Z,95.41
2022-12-15T13:03:11.093Z,95.38
2022-12-15T13:08:13.797Z,95.58
2022-12-15T13:13:32.203Z,95.64
2022-12-15T13:19:03.016Z,95.65
2022-12-15T13:24:06.134Z,96.00
2022-12-15T13:29:14.070Z,95.85
2022-12-15T13:34:29.423Z,95.97
2022-12-15T13:39:35.625Z,96.07
2022-12-15T13:44:51.870Z,96.30
2022-12-15T13:50:15.381Z,96.74
2022-12-15T13:55:32.806Z,96.73
2022-12-15T14:00:39.384Z,97.38
2022-12-15T14:05:59.380Z,97.82
2022-12-15T14:16:27.070Z,98.52
2022-12-15T14:21:30.490Z,98.93
2022-12-15T14:26:33.501Z,99.32
2022-12-15T14:31:37.862Z,99.72
2022-12-15T14:36:42.990Z,99.88
2022-12-15T14:41:50.634Z,100.00
2022-12-15T14:46:54.901Z,100.00
2022-12-15T14:52:03.122Z,100.00
2022-12-15T14:57:23.343Z,100.00
2022-12-15T15:02:30.070Z,100.00
2022-12-15T15:03:14.143Z,98.19
2022-12-15T15:07:35.664Z,100.00
2022-12-15T15:12:45.483Z,100.00
2022-12-15T15:17:51.871Z,100.00
2022-12-15T15:23:17.489Z,100.00
2022-12-15T15:28:22.390Z,100.00
2022-12-15T15:33:26.617Z,100.00
2022-12-15T15:38:35.413Z,100.00
2022-12-15T15:43:38.773Z,100.00
2022-12-15T15:49:08.115Z,100.00
2022-12-15T15:54:18.127Z,100.00
2022-12-15T15:59:21.717Z,100.00
2022-12-15T16:04:25.461Z,100.00
2022-12-15T16:09:28.482Z,100.00
2022-12-15T16:14:31.404Z,100.00
2022-12-15T16:19:39.465Z,100.00
2022-12-15T16:24:43.672Z,100.00
2022-12-15T16:29:46.367Z,100.00
2022-12-15T16:34:52.702Z,100.00
2022-12-15T16:39:55.654Z,100.00
2022-12-15T16:44:58.714Z,100.00
2022-12-15T16:50:01.639Z,100.00
2022-12-15T16:55:05.060Z,100.00
2022-12-15T17:00:40.907Z,100.00
2022-12-15T17:05:49.672Z,100.00
2022-12-15T17:10:52.715Z,100.00
2022-12-15T17:15:55.923Z,100.00
2022-12-15T17:21:25.879Z,100.00
2022-12-15T17:26:32.317Z,100.00
2022-12-15T17:31:36.292Z,100.00
2022-12-15T17:36:39.404Z,100.00
2022-12-15T17:41:59.512Z,100.00
2022-12-15T17:47:05.721Z,100.00
2022-12-15T17:52:34.700Z,100.00
2022-12-15T17:57:38.047Z,100.00
2022-12-15T18:02:41.162Z,100.00
2022-12-15T18:07:45.217Z,100.00
2022-12-15T18:12:48.182Z,100.00
2022-12-15T18:17:51.122Z,100.00
2022-12-15T18:22:54.272Z,100.00
2022-12-15T18:28:00.185Z,100.00
2022-12-15T18:33:03.235Z,100.00
2022-12-15T18:38:25.308Z,100.00
2022-12-15T18:43:34.311Z,100.00
2022-12-15T18:48:37.670Z,100.00
2022-12-15T18:53:41.289Z,100.00
2022-12-15T18:58:44.375Z,100.00
2022-12-15T19:03:47.285Z,100.00
2022-12-15T19:08:51.348Z,100.00
2022-12-15T19:13:54.258Z,100.00
2022-12-15T19:19:17.463Z,100.00
2022-12-15T19:24:50.580Z,100.00
2022-12-15T19:29:55.192Z,100.00
2022-12-15T19:34:58.311Z,100.00
2022-12-15T19:40:02.368Z,100.00
2022-12-15T19:45:28.255Z,100.00
2022-12-15T19:50:37.391Z,100.00
2022-12-15T19:55:41.927Z,100.00
2022-12-15T20:00:45.046Z,100.00
2022-12-15T20:05:51.962Z,100.00
2022-12-15T20:10:56.058Z,100.00
2022-12-15T20:15:58.812Z,100.00
2022-12-15T20:21:01.991Z,100.00
2022-12-15T20:26:06.919Z,100.00
2022-12-15T20:31:15.798Z,100.00
2022-12-15T20:36:24.577Z,100.00
2022-12-15T20:41:29.395Z,100.00
2022-12-15T20:46:35.427Z,100.00
2022-12-15T20:51:38.432Z,100.00
2022-12-15T20:56:42.683Z,100.00
2022-12-15T21:01:46.918Z,100.00
2022-12-15T21:06:54.647Z,100.00
2022-12-15T21:11:58.656Z,100.00
2022-12-15T21:17:01.591Z,100.00
2022-12-15T21:22:06.466Z,100.00
2022-12-15T21:27:14.617Z,100.00
2022-12-15T21:32:17.864Z,100.00
2022-12-15T21:37:28.700Z,100.00
2022-12-15T21:42:35.788Z,100.00
2022-12-15T21:47:57.063Z,100.00
2022-12-15T21:53:01.466Z,100.00
2022-12-15T21:58:22.085Z,100.00
2022-12-15T22:03:25.362Z,100.00
2022-12-15T22:08:29.801Z,100.00
2022-12-15T22:13:33.938Z,100.00
2022-12-15T22:18:36.993Z,100.00
2022-12-15T22:23:40.110Z,100.00
2022-12-15T22:28:43.116Z,100.00
2022-12-15T22:33:46.171Z,100.00
2022-12-15T22:38:49.839Z,100.00
2022-12-15T22:43:55.786Z,100.00
2022-12-15T22:48:58.789Z,100.00
2022-12-15T22:54:02.157Z,100.00
2022-12-15T22:59:11.276Z,100.00
2022-12-15T23:04:14.452Z,100.00
2022-12-15T23:09:17.389Z,100.00
2022-12-15T23:14:40.287Z,100.00
2022-12-15T23:19:47.105Z,100.00
2022-12-15T23:24:50.028Z,100.00
2022-12-15T23:29:52.953Z,100.00
2022-12-15T23:34:57.908Z,100.00
2022-12-15T23:40:01.183Z,100.00
2022-12-15T23:45:05.397Z,100.00
2022-12-15T23:50:08.948Z,100.00
2022-12-15T23:55:12.066Z,100.00
